Time;durP1;ratioP1;P1;durP2;ratioP2;P2;SDS_P1;SDS_P2;PMS_P1;PMS_P2;Temp;Humidity;BMP_temperature;BMP_pressure;BME280_temperature;BME280_humidity;BME280_pressure;Samples;Min_cycle;Max_cycle;Signal;HPM_P1;HPM_P2
2021/11/07 00:05:41;;;;;;;;;;;;;;;;;;5036159;28;20041;-62
2021/11/07 00:08:01;;;;;;;0.70;0.20;;;;;;;;;;5032281;28;19905;-61
2021/11/07 00:10:38;;;;;;;0.80;0.22;;;;;;;;;;5035617;28;20013;-62
2021/11/07 00:13:26;;;;;;;0.50;0.10;;;;;;;;;;5035421;28;20024;-62
2021/11/07 00:15:51;;;;;;;0.82;0.20;;;;;;;;;;5034869;28;20044;-62
2021/11/07 00:18:23;;;;;;;1.95;0.13;;;;;;;;;;5035510;28;20013;-61
2021/11/07 00:21:01;;;;;;;0.57;0.25;;;;;;;;;;5035371;28;20029;-62
2021/11/07 00:23:40;;;;;;;0.75;0.20;;;;;;;;;;5035161;28;20022;-62
2021/11/07 00:26:23;;;;;;;1.02;0.28;;;;;;;;;;5034242;28;20014;-62
2021/11/07 00:28:52;;;;;;;2.10;0.30;;;;;;;;;;5035058;28;20017;-62
2021/11/07 00:31:26;;;;;;;1.33;0.30;;;;;;;;;;5035618;28;20048;-62
2021/11/07 00:36:40;;;;;;;2.00;0.15;;;;;;;;;;5035490;28;20080;-61
2021/11/07 00:39:15;;;;;;;0.57;0.15;;;;;;;;;;5034862;28;20017;-62
2021/11/07 00:42:01;;;;;;;2.58;0.40;;;;;;;;;;5034991;28;20571;-63
2021/11/07 00:47:59;;;;;;;3.67;0.40;;;;;;;;;;5035049;28;20048;-62
2021/11/07 00:50:06;;;;;;;1.55;0.10;;;;;;;;;;5028927;28;20028;-62
2021/11/07 00:57:56;;;;;;;3.55;0.40;;;;;;;;;;4992701;28;20038;-61
2021/11/07 01:02:53;;;;;;;1.65;0.30;;;;;;;;;;4992636;28;20077;-61
2021/11/07 01:05:22;;;;;;;0.82;0.20;;;;;;;;;;4992641;28;20035;-62
2021/11/07 01:07:47;;;;;;;0.38;0.20;;;;;;;;;;4992461;28;20018;-62
2021/11/07 01:10:13;;;;;;;0.73;0.20;;;;;;;;;;4992765;28;20033;-62
2021/11/07 01:12:38;;;;;;;0.73;0.20;;;;;;;;;;4992835;28;20374;-63
2021/11/07 01:15:05;;;;;;;1.38;0.28;;;;;;;;;;4992821;28;20041;-62
2021/11/07 01:17:30;;;;;;;2.17;0.45;;;;;;;;;;4992910;28;20022;-62
2021/11/07 01:19:57;;;;;;;1.20;0.63;;;;;;;;;;4992429;28;20488;-62
2021/11/07 01:22:32;;;;;;;0.65;0.20;;;;;;;;;;4992671;28;20038;-61
2021/11/07 01:25:00;;;;;;;1.50;0.50;;;;;;;;;;4992309;28;20109;-62
2021/11/07 01:27:47;;;;;;;1.02;0.20;;;;;;;;;;4992541;28;20098;-62
2021/11/07 01:30:16;;;;;;;1.73;0.22;;;;;;;;;;4992297;28;20026;-62
2021/11/07 01:32:46;;;;;;;0.32;0.20;;;;;;;;;;4992237;28;20022;-63
2021/11/07 01:40:39;;;;;;;1.35;0.20;;;;;;;;;;4953637;29;20058;-61
2021/11/07 01:43:05;;;;;;;0.63;0.10;;;;;;;;;;4937369;29;20411;-61
2021/11/07 01:45:35;;;;;;;0.52;0.25;;;;;;;;;;4953615;29;20039;-62
2021/11/07 01:48:14;;;;;;;1.23;0.30;;;;;;;;;;4953507;29;20131;-62
2021/11/07 01:50:42;;;;;;;0.15;0.10;;;;;;;;;;4953556;29;20070;-62
2021/11/07 01:53:18;;;;;;;2.10;0.57;;;;;;;;;;4953270;29;20782;-62
2021/11/07 01:55:44;;;;;;;0.98;0.20;;;;;;;;;;4953319;29;20125;-62
2021/11/07 01:58:09;;;;;;;1.55;0.10;;;;;;;;;;4953090;29;20106;-62
2021/11/07 02:00:35;;;;;;;3.00;0.43;;;;;;;;;;4953419;29;20035;-62
2021/11/07 02:03:00;;;;;;;0.75;0.08;;;;;;;;;;4953049;29;20071;-62
2021/11/07 02:05:27;;;;;;;0.32;0.10;;;;;;;;;;4952997;29;20047;-62
2021/11/07 02:07:52;;;;;;;3.33;0.20;;;;;;;;;;4953056;29;20126;-62
2021/11/07 02:10:18;;;;;;;3.27;0.37;;;;;;;;;;4953135;29;20035;-62
2021/11/07 02:12:43;;;;;;;1.67;0.20;;;;;;;;;;4952980;29;20248;-63
2021/11/07 02:15:10;;;;;;;1.83;0.35;;;;;;;;;;4952961;29;20022;-62
2021/11/07 02:17:36;;;;;;;1.45;0.10;;;;;;;;;;5014353;28;20071;-62
2021/11/07 02:20:03;;;;;;;3.45;0.35;;;;;;;;;;5033048;28;20424;-62
2021/11/07 02:22:28;;;;;;;1.55;0.35;;;;;;;;;;5033450;28;20386;-62
2021/11/07 02:24:54;;;;;;;0.82;0.28;;;;;;;;;;5033028;28;20025;-62
2021/11/07 02:27:19;;;;;;;0.80;0.17;;;;;;;;;;5033461;28;20070;-62
2021/11/07 02:29:44;;;;;;;0.70;0.10;;;;;;;;;;5033110;28;20357;-62
2021/11/07 02:32:09;;;;;;;1.42;0.17;;;;;;;;;;5033201;28;20017;-61
2021/11/07 02:34:35;;;;;;;2.33;0.73;;;;;;;;;;5033206;28;20025;-62
2021/11/07 02:37:01;;;;;;;1.05;0.20;;;;;;;;;;5033099;28;20029;-62
2021/11/07 02:39:27;;;;;;;1.55;0.28;;;;;;;;;;5032843;28;20040;-62
2021/11/07 02:41:52;;;;;;;1.80;0.30;;;;;;;;;;5032786;28;20037;-62
2021/11/07 02:44:34;;;;;;;2.92;0.95;;;;;;;;;;5033009;28;20022;-62
2021/11/07 02:47:01;;;;;;;0.47;0.13;;;;;;;;;;5032765;28;20108;-63
2021/11/07 02:49:26;;;;;;;1.63;0.30;;;;;;;;;;5036255;28;20049;-62
2021/11/07 02:51:51;;;;;;;2.05;0.25;;;;;;;;;;5036958;28;20095;-62
2021/11/07 02:54:17;;;;;;;2.25;0.52;;;;;;;;;;5036914;28;20013;-62
2021/11/07 02:56:42;;;;;;;2.10;0.68;;;;;;;;;;5036747;28;20068;-62
2021/11/07 02:59:15;;;;;;;0.80;0.30;;;;;;;;;;5036990;28;20053;-62
2021/11/07 03:01:40;;;;;;;0.50;0.20;;;;;;;;;;5036594;28;20524;-62
2021/11/07 03:04:08;;;;;;;2.13;0.30;;;;;;;;;;5035362;28;20038;-62
2021/11/07 03:06:34;;;;;;;0.40;0.20;;;;;;;;;;5036763;28;20025;-62
2021/11/07 03:09:00;;;;;;;2.78;0.20;;;;;;;;;;5036507;28;20040;-63
2021/11/07 03:11:26;;;;;;;0.35;0.13;;;;;;;;;;5036764;28;20033;-62
2021/11/07 03:13:51;;;;;;;1.90;0.30;;;;;;;;;;5036496;28;20029;-62
2021/11/07 03:16:16;;;;;;;0.47;0.10;;;;;;;;;;5036646;28;20044;-62
2021/11/07 03:18:41;;;;;;;2.83;0.47;;;;;;;;;;5036127;28;20510;-62
2021/11/07 03:21:07;;;;;;;1.42;0.20;;;;;;;;;;5036388;28;20032;-63
2021/11/07 03:23:36;;;;;;;1.20;0.20;;;;;;;;;;5036282;28;20025;-62
2021/11/07 03:26:06;;;;;;;1.65;0.20;;;;;;;;;;5036383;28;20021;-62
2021/11/07 03:28:33;;;;;;;1.67;0.30;;;;;;;;;;5036511;28;20062;-61
2021/11/07 03:33:51;;;;;;;1.08;0.20;;;;;;;;;;5036506;28;20132;-62
2021/11/07 03:36:18;;;;;;;0.82;0.20;;;;;;;;;;5036452;28;20022;-62
2021/11/07 03:38:45;;;;;;;1.77;0.20;;;;;;;;;;5036076;28;20021;-62
2021/11/07 03:41:11;;;;;;;1.40;0.25;;;;;;;;;;5036091;28;20017;-62
2021/11/07 03:43:36;;;;;;;0.80;0.15;;;;;;;;;;5036088;28;20009;-62
2021/11/07 03:46:02;;;;;;;1.27;0.20;;;;;;;;;;5035973;28;20108;-62
2021/11/07 03:48:27;;;;;;;0.40;0.10;;;;;;;;;;5036102;28;20022;-62
2021/11/07 03:50:52;;;;;;;1.98;0.30;;;;;;;;;;5035851;28;20513;-62
2021/11/07 03:53:18;;;;;;;1.90;0.30;;;;;;;;;;5035878;28;20028;-62
2021/11/07 03:55:43;;;;;;;1.40;0.10;;;;;;;;;;5035779;28;20025;-62
2021/11/07 03:58:08;;;;;;;1.33;0.10;;;;;;;;;;5035534;28;20408;-62
2021/11/07 04:00:34;;;;;;;0.68;0.10;;;;;;;;;;5034687;28;20040;-62
2021/11/07 04:03:00;;;;;;;1.55;0.28;;;;;;;;;;5035570;28;20050;-62
2021/11/07 04:05:25;;;;;;;0.75;0.10;;;;;;;;;;5035740;28;20060;-62
2021/11/07 04:07:50;;;;;;;1.13;0.20;;;;;;;;;;5035538;28;20372;-63
2021/11/07 04:10:16;;;;;;;1.50;0.22;;;;;;;;;;5035674;28;20025;-62
2021/11/07 04:12:42;;;;;;;0.47;0.20;;;;;;;;;;5035581;28;20021;-62
2021/11/07 04:15:08;;;;;;;3.53;0.38;;;;;;;;;;5035425;28;20025;-62
2021/11/07 04:17:33;;;;;;;1.20;0.25;;;;;;;;;;5035515;28;20100;-63
2021/11/07 04:19:59;;;;;;;1.20;0.25;;;;;;;;;;5035430;28;20049;-62
2021/11/07 04:22:24;;;;;;;0.32;0.10;;;;;;;;;;5035399;28;20025;-62
2021/11/07 04:24:50;;;;;;;1.02;0.20;;;;;;;;;;5035132;28;20470;-62
2021/11/07 04:27:15;;;;;;;0.65;0.30;;;;;;;;;;5034837;28;20018;-62
2021/11/07 04:29:40;;;;;;;0.50;0.20;;;;;;;;;;5035320;28;20022;-62
2021/11/07 04:32:06;;;;;;;1.27;0.32;;;;;;;;;;5035197;28;20395;-62
2021/11/07 04:34:32;;;;;;;0.40;0.20;;;;;;;;;;5035333;28;20101;-62
2021/11/07 04:36:57;;;;;;;1.15;0.30;;;;;;;;;;5035116;28;20049;-62
2021/11/07 04:39:24;;;;;;;0.43;0.22;;;;;;;;;;5035125;28;20044;-62
2021/11/07 04:41:49;;;;;;;1.55;0.20;;;;;;;;;;5034887;28;20528;-62
2021/11/07 04:44:14;;;;;;;0.95;0.22;;;;;;;;;;5034719;28;20057;-62
2021/11/07 04:46:40;;;;;;;1.40;0.30;;;;;;;;;;5034673;28;20024;-62
2021/11/07 04:49:06;;;;;;;1.45;0.40;;;;;;;;;;5034910;28;20045;-62
2021/11/07 04:51:31;;;;;;;1.08;0.22;;;;;;;;;;5034927;28;20475;-62
2021/11/07 04:53:56;;;;;;;1.35;0.38;;;;;;;;;;5034755;28;20068;-62
2021/11/07 04:56:21;;;;;;;0.40;0.40;;;;;;;;;;5034809;28;20033;-62
2021/11/07 04:58:47;;;;;;;0.57;0.00;;;;;;;;;;5034571;28;20060;-62
2021/11/07 05:01:12;;;;;;;0.93;0.30;;;;;;;;;;5034497;28;20262;-62
2021/11/07 05:03:38;;;;;;;1.33;0.30;;;;;;;;;;5034449;28;20029;-62
2021/11/07 05:06:03;;;;;;;3.75;0.30;;;;;;;;;;5034466;28;20071;-62
2021/11/07 05:08:28;;;;;;;0.15;0.03;;;;;;;;;;5034567;28;20021;-62
2021/11/07 05:10:55;;;;;;;2.20;0.30;;;;;;;;;;5033819;28;20055;-62
2021/11/07 05:13:20;;;;;;;0.28;0.10;;;;;;;;;;5034371;28;20254;-62
2021/11/07 05:15:46;;;;;;;1.00;0.10;;;;;;;;;;5034241;28;20017;-62
2021/11/07 05:18:11;;;;;;;0.65;0.35;;;;;;;;;;5034181;28;20376;-62
2021/11/07 05:20:37;;;;;;;0.38;0.10;;;;;;;;;;5034298;28;20366;-62
2021/11/07 05:23:02;;;;;;;0.70;0.20;;;;;;;;;;5034006;28;20103;-62
2021/11/07 05:25:27;;;;;;;0.63;0.08;;;;;;;;;;5034298;28;20100;-62
2021/11/07 05:27:53;;;;;;;0.30;0.10;;;;;;;;;;5034008;28;20049;-62
2021/11/07 05:30:18;;;;;;;0.95;0.35;;;;;;;;;;5034113;28;20032;-62
2021/11/07 05:32:45;;;;;;;1.80;0.13;;;;;;;;;;5034051;28;20026;-62
2021/11/07 05:35:11;;;;;;;1.10;0.20;;;;;;;;;;5034250;28;20040;-61
2021/11/07 05:37:36;;;;;;;1.52;0.20;;;;;;;;;;5033959;28;20461;-61
2021/11/07 05:40:02;;;;;;;0.77;0.30;;;;;;;;;;5033999;28;20032;-62
2021/11/07 05:42:27;;;;;;;1.23;0.20;;;;;;;;;;5033985;28;20135;-62
2021/11/07 05:44:53;;;;;;;0.87;0.10;;;;;;;;;;5033557;28;20053;-62
2021/11/07 05:47:18;;;;;;;1.10;0.17;;;;;;;;;;5033985;28;20259;-62
2021/11/07 05:49:44;;;;;;;0.70;0.20;;;;;;;;;;5033696;28;20096;-62
2021/11/07 05:52:10;;;;;;;1.17;0.10;;;;;;;;;;5033752;28;20013;-62
2021/11/07 05:54:35;;;;;;;1.17;0.10;;;;;;;;;;5033649;28;20022;-62
2021/11/07 05:57:02;;;;;;;1.42;0.10;;;;;;;;;;5033525;28;20036;-62
2021/11/07 05:59:28;;;;;;;0.90;0.30;;;;;;;;;;5033721;28;20060;-61
2021/11/07 06:01:54;;;;;;;1.08;0.20;;;;;;;;;;5033288;28;20030;-61
2021/11/07 06:04:19;;;;;;;2.33;0.45;;;;;;;;;;5033313;28;20024;-61
2021/11/07 06:06:44;;;;;;;3.13;0.57;;;;;;;;;;5033381;28;20026;-62
2021/11/07 06:09:09;;;;;;;1.92;0.50;;;;;;;;;;5033351;28;20261;-61
2021/11/07 06:11:34;;;;;;;1.23;0.17;;;;;;;;;;5033513;28;20021;-61
2021/11/07 06:14:01;;;;;;;1.20;0.20;;;;;;;;;;5033052;28;20070;-62
2021/11/07 06:16:26;;;;;;;0.90;0.38;;;;;;;;;;5033215;28;20022;-62
2021/11/07 06:18:51;;;;;;;1.45;0.20;;;;;;;;;;5033332;28;20023;-62
2021/11/07 06:21:16;;;;;;;1.17;0.17;;;;;;;;;;5032991;28;20028;-61
2021/11/07 06:23:42;;;;;;;1.65;0.63;;;;;;;;;;5032464;28;20423;-62
2021/11/07 06:26:08;;;;;;;0.93;0.10;;;;;;;;;;5033171;28;20080;-61
2021/11/07 06:28:33;;;;;;;0.15;0.03;;;;;;;;;;5033397;28;20452;-61
2021/11/07 06:31:04;;;;;;;1.55;0.30;;;;;;;;;;5033148;28;20018;-61
2021/11/07 06:33:29;;;;;;;0.68;0.10;;;;;;;;;;5033266;28;20060;-61
2021/11/07 06:35:55;;;;;;;1.63;0.20;;;;;;;;;;5033186;28;20017;-62
2021/11/07 06:38:20;;;;;;;0.47;0.20;;;;;;;;;;5033116;28;20376;-61
2021/11/07 06:40:45;;;;;;;0.43;0.10;;;;;;;;;;5032892;28;20027;-62
2021/11/07 06:43:11;;;;;;;0.80;0.28;;;;;;;;;;5033144;28;20479;-62
2021/11/07 06:45:36;;;;;;;0.85;0.10;;;;;;;;;;5033019;28;20060;-62
2021/11/07 06:48:02;;;;;;;1.38;0.15;;;;;;;;;;5032907;28;20400;-62
2021/11/07 06:50:27;;;;;;;1.70;0.20;;;;;;;;;;5033007;28;20018;-62
2021/11/07 06:52:52;;;;;;;2.28;0.10;;;;;;;;;;5033083;28;20025;-62
2021/11/07 06:55:18;;;;;;;3.33;0.38;;;;;;;;;;5032989;28;20075;-62
2021/11/07 06:57:43;;;;;;;1.55;0.22;;;;;;;;;;5032920;28;20026;-61
2021/11/07 07:00:14;;;;;;;1.88;0.10;;;;;;;;;;5032923;28;20062;-61
2021/11/07 07:02:39;;;;;;;2.25;0.30;;;;;;;;;;5032512;28;20033;-61
2021/11/07 07:05:05;;;;;;;2.05;0.17;;;;;;;;;;5032878;28;20364;-62
2021/11/07 07:07:35;;;;;;;1.00;0.30;;;;;;;;;;5032926;28;20461;-62
2021/11/07 07:10:03;;;;;;;2.17;0.30;;;;;;;;;;5032745;28;20049;-62
2021/11/07 07:12:32;;;;;;;2.08;0.32;;;;;;;;;;5033059;28;20023;-62
2021/11/07 07:17:43;;;;;;;0.75;0.10;;;;;;;;;;5033148;28;20021;-61
2021/11/07 07:35:48;;;;;;;2.30;0.28;;;;;;;;;;5014101;28;20025;-61
2021/11/07 07:38:13;;;;;;;1.13;0.50;;;;;;;;;;5014175;28;20084;-61
2021/11/07 07:40:38;;;;;;;2.42;0.43;;;;;;;;;;5014325;28;20057;-61
2021/11/07 07:43:03;;;;;;;1.73;0.30;;;;;;;;;;5014087;28;20108;-61
2021/11/07 07:45:30;;;;;;;2.00;0.57;;;;;;;;;;5014253;28;20408;-62
2021/11/07 07:47:56;;;;;;;0.95;0.20;;;;;;;;;;5014040;28;20018;-61
2021/11/07 07:50:22;;;;;;;1.67;0.28;;;;;;;;;;5014091;28;20033;-61
2021/11/07 07:52:48;;;;;;;0.88;0.20;;;;;;;;;;5013545;28;20029;-61
2021/11/07 07:55:13;;;;;;;0.82;0.13;;;;;;;;;;5014081;28;20461;-61
2021/11/07 07:57:39;;;;;;;1.25;0.20;;;;;;;;;;5013852;28;20041;-61
2021/11/07 08:00:08;;;;;;;0.73;0.20;;;;;;;;;;5013902;28;20480;-61
2021/11/07 08:02:33;;;;;;;2.42;0.10;;;;;;;;;;5013628;28;20093;-61
2021/11/07 08:04:59;;;;;;;2.85;0.30;;;;;;;;;;5032623;28;20045;-61
2021/11/07 08:07:26;;;;;;;0.73;0.20;;;;;;;;;;5035903;28;20022;-62
2021/11/07 08:09:52;;;;;;;0.73;0.10;;;;;;;;;;5035369;28;20020;-62
2021/11/07 08:12:17;;;;;;;1.58;0.10;;;;;;;;;;5035763;28;20093;-61
2021/11/07 08:14:43;;;;;;;2.10;0.25;;;;;;;;;;5035373;28;20063;-61
2021/11/07 08:17:08;;;;;;;0.80;0.20;;;;;;;;;;5035672;28;20096;-62
2021/11/07 08:19:33;;;;;;;1.08;0.10;;;;;;;;;;5035242;28;20459;-61
2021/11/07 08:21:59;;;;;;;1.00;0.30;;;;;;;;;;5035364;28;20524;-61
2021/11/07 08:24:24;;;;;;;1.38;0.10;;;;;;;;;;5035360;28;20018;-61
2021/11/07 08:26:50;;;;;;;2.33;0.45;;;;;;;;;;5035102;28;20096;-61
2021/11/07 08:29:16;;;;;;;2.03;0.60;;;;;;;;;;5035388;28;20064;-61
2021/11/07 08:31:44;;;;;;;1.60;0.20;;;;;;;;;;5035224;28;20029;-61
2021/11/07 08:34:10;;;;;;;0.30;0.00;;;;;;;;;;5035132;28;20017;-61
2021/11/07 08:39:14;;;;;;;0.88;0.20;;;;;;;;;;5035114;28;20047;-61
2021/11/07 08:41:49;;;;;;;1.95;0.13;;;;;;;;;;5034956;28;20100;-61
2021/11/07 09:00:28;;;;;;;0.93;0.28;;;;;;;;;;5012913;28;20057;-61
2021/11/07 09:05:31;;;;;;;1.40;0.30;;;;;;;;;;5012490;28;20042;-61
2021/11/07 09:10:33;;;;;;;0.00;0.00;;;;;;;;;;5012747;28;20018;-61
2021/11/07 09:13:00;;;;;;;0.88;0.10;;;;;;;;;;5012337;28;20033;-62
2021/11/07 09:15:26;;;;;;;1.13;0.38;;;;;;;;;;5012337;28;20033;-62
2021/11/07 09:17:52;;;;;;;1.38;0.10;;;;;;;;;;5011924;28;20044;-62
2021/11/07 09:20:23;;;;;;;0.90;0.20;;;;;;;;;;5012043;28;20046;-61
2021/11/07 09:22:53;;;;;;;2.95;0.20;;;;;;;;;;5012221;28;20025;-62
2021/11/07 09:25:23;;;;;;;1.90;0.20;;;;;;;;;;5034294;28;20045;-61
2021/11/07 09:27:54;;;;;;;0.30;0.10;;;;;;;;;;5033782;28;20024;-62
2021/11/07 09:30:29;;;;;;;2.03;0.38;;;;;;;;;;5033966;28;20064;-62
2021/11/07 09:33:12;;;;;;;0.60;0.10;;;;;;;;;;5033996;28;20063;-61
2021/11/07 09:38:21;;;;;;;;;;;;;;;;;;5034797;28;20096;-61
2021/11/07 09:40:59;;;;;;;0.40;0.10;;;;;;;;;;5033880;28;19996;-61
2021/11/07 09:46:10;;;;;;;1.77;0.30;;;;;;;;;;5033658;28;20436;-61
2021/11/07 09:48:39;;;;;;;1.27;0.20;;;;;;;;;;5033794;28;20056;-62
2021/11/07 09:51:11;;;;;;;1.05;0.10;;;;;;;;;;5033547;28;20045;-62
2021/11/07 09:53:37;;;;;;;0.47;0.10;;;;;;;;;;5032638;28;20024;-61
2021/11/07 09:56:03;;;;;;;1.20;0.57;;;;;;;;;;5033320;28;20100;-62
2021/11/07 09:58:28;;;;;;;0.57;0.00;;;;;;;;;;5032704;28;20109;-62
2021/11/07 10:00:54;;;;;;;2.05;0.20;;;;;;;;;;5033588;28;20045;-62
2021/11/07 10:03:21;;;;;;;1.70;0.20;;;;;;;;;;5033402;28;20053;-62
2021/11/07 10:05:48;;;;;;;3.75;0.55;;;;;;;;;;5033355;28;20030;-61
2021/11/07 10:08:14;;;;;;;1.42;0.20;;;;;;;;;;5033620;28;20017;-61
2021/11/07 10:10:46;;;;;;;0.63;0.00;;;;;;;;;;5033187;28;20025;-61
2021/11/07 10:13:21;;;;;;;2.60;0.20;;;;;;;;;;5033382;28;20024;-61
2021/11/07 10:15:52;;;;;;;0.63;0.10;;;;;;;;;;5033312;28;20062;-62
2021/11/07 10:18:33;;;;;;;0.75;0.22;;;;;;;;;;5032360;28;20376;-62
2021/11/07 10:21:03;;;;;;;1.33;0.20;;;;;;;;;;5032999;28;20014;-62
2021/11/07 10:23:35;;;;;;;0.82;0.47;;;;;;;;;;5033299;28;20044;-61
2021/11/07 10:26:20;;;;;;;1.85;0.20;;;;;;;;;;5033164;28;20418;-62
2021/11/07 10:28:52;;;;;;;;;;;;;;;;;;5033601;28;20013;-61
2021/11/07 10:31:30;;;;;;;1.15;0.40;;;;;;;;;;5033657;28;20351;-61
2021/11/07 10:36:42;;;;;;;0.57;0.17;;;;;;;;;;5033457;28;20112;-62
2021/11/07 10:47:01;;;;;;;1.10;0.10;;;;;;;;;;5033200;28;19911;-62
2021/11/07 10:52:23;;;;;;;1.00;0.10;;;;;;;;;;5033146;28;20041;-62
2021/11/07 10:54:48;;;;;;;0.57;0.10;;;;;;;;;;5032719;28;20411;-62
2021/11/07 10:57:15;;;;;;;1.10;0.38;;;;;;;;;;5033050;28;20017;-62
2021/11/07 10:59:41;;;;;;;1.00;0.20;;;;;;;;;;5032957;28;20411;-62
2021/11/07 11:02:26;;;;;;;0.80;0.10;;;;;;;;;;5032565;28;20495;-61
2021/11/07 11:05:00;;;;;;;2.30;0.20;;;;;;;;;;5032546;28;20033;-62
2021/11/07 11:07:25;;;;;;;2.10;0.63;;;;;;;;;;5033012;28;20021;-62
2021/11/07 11:10:12;;;;;;;1.00;0.10;;;;;;;;;;5034843;28;20025;-62
2021/11/07 11:12:57;;;;;;;3.13;0.20;;;;;;;;;;5036597;28;20021;-62
2021/11/07 11:15:32;;;;;;;1.55;0.25;;;;;;;;;;5036620;28;20034;-62
2021/11/07 11:17:57;;;;;;;;;;;;;;;;;;5036964;28;20028;-62
2021/11/07 11:20:33;;;;;;;1.83;0.20;;;;;;;;;;5036653;28;19912;-62
2021/11/07 11:26:10;;;;;;;1.08;0.10;;;;;;;;;;4955947;29;20066;-62
2021/11/07 11:28:59;;;;;;;1.77;0.22;;;;;;;;;;4955858;29;20031;-62
2021/11/07 11:31:35;;;;;;;1.63;0.13;;;;;;;;;;4956122;29;20039;-61
2021/11/07 11:34:02;;;;;;;1.17;0.20;;;;;;;;;;4955671;29;20045;-62
2021/11/07 11:36:34;;;;;;;0.60;0.20;;;;;;;;;;4956093;29;20415;-62
2021/11/07 11:39:09;;;;;;;1.77;0.22;;;;;;;;;;4955863;29;20031;-62
2021/11/07 11:41:57;;;;;;;2.90;0.28;;;;;;;;;;4956025;29;20027;-62
2021/11/07 11:44:22;;;;;;;0.55;0.00;;;;;;;;;;4955776;29;20027;-62
2021/11/07 11:47:00;;;;;;;1.50;0.20;;;;;;;;;;4955317;29;20102;-62
2021/11/07 11:54:54;;;;;;;1.13;0.20;;;;;;;;;;4955424;29;20366;-62
2021/11/07 12:02:28;;;;;;;1.25;0.20;;;;;;;;;;4998774;28;19913;-62
2021/11/07 12:05:01;;;;;;;2.58;0.10;;;;;;;;;;5035508;28;20040;-62
2021/11/07 12:07:34;;;;;;;1.13;0.08;;;;;;;;;;5035855;28;20017;-62
2021/11/07 12:10:03;;;;;;;1.67;0.20;;;;;;;;;;5035593;28;20025;-61
2021/11/07 12:12:53;;;;;;;0.82;0.10;;;;;;;;;;5035653;28;20093;-62
2021/11/07 12:17:47;;;;;;;0.75;0.13;;;;;;;;;;5035639;28;20030;-62
2021/11/07 12:20:34;;;;;;;2.05;0.38;;;;;;;;;;5034929;28;20503;-62
2021/11/07 12:23:18;;;;;;;1.90;0.30;;;;;;;;;;5035397;28;20459;-62
2021/11/07 12:25:47;;;;;;;1.70;0.20;;;;;;;;;;5034128;28;20033;-61
2021/11/07 12:28:13;;;;;;;1.75;0.20;;;;;;;;;;5035254;28;20354;-62
2021/11/07 12:30:40;;;;;;;0.77;0.20;;;;;;;;;;5035383;28;20091;-62
2021/11/07 12:33:11;;;;;;;1.75;0.28;;;;;;;;;;5035184;28;20536;-62
2021/11/07 12:35:43;;;;;;;1.23;0.30;;;;;;;;;;5035232;28;20372;-62
2021/11/07 12:41:00;;;;;;;0.82;0.20;;;;;;;;;;5034984;28;20044;-62
2021/11/07 12:43:35;;;;;;;0.43;0.10;;;;;;;;;;5035110;28;20025;-62
2021/11/07 12:46:06;;;;;;;;;;;;;;;;;;5035261;28;20100;-62
2021/11/07 12:48:52;;;;;;;1.00;0.10;;;;;;;;;;5035082;28;20311;-62
2021/11/07 12:51:20;;;;;;;2.85;0.22;;;;;;;;;;5034398;28;20034;-62
2021/11/07 12:54:13;;;;;;;1.40;0.13;;;;;;;;;;5034839;28;20017;-62
2021/11/07 12:56:40;;;;;;;1.13;0.17;;;;;;;;;;4954241;29;20035;-62
2021/11/07 12:59:07;;;;;;;1.65;0.30;;;;;;;;;;4954343;29;20034;-62
2021/11/07 13:01:51;;;;;;;0.70;0.25;;;;;;;;;;4954148;29;20038;-62
2021/11/07 13:04:16;;;;;;;2.92;0.20;;;;;;;;;;4954630;29;20510;-62
2021/11/07 13:06:42;;;;;;;1.40;0.10;;;;;;;;;;4954389;29;20039;-62
2021/11/07 13:09:07;;;;;;;0.82;0.15;;;;;;;;;;4954262;29;20027;-62
2021/11/07 13:11:39;;;;;;;1.20;0.10;;;;;;;;;;4954207;29;20086;-62
2021/11/07 13:14:18;;;;;;;0.77;0.15;;;;;;;;;;4954211;29;20031;-62
2021/11/07 13:17:05;;;;;;;1.25;0.20;;;;;;;;;;4954254;29;20425;-62
2021/11/07 13:24:56;;;;;;;1.65;0.30;;;;;;;;;;4954155;29;20031;-62
2021/11/07 13:27:27;;;;;;;4.88;0.65;;;;;;;;;;4953939;29;20027;-62
2021/11/07 13:29:55;;;;;;;0.80;0.43;;;;;;;;;;4953557;29;20553;-62
2021/11/07 13:34:54;;;;;;;;;;;;;;;;;;5034473;28;20025;-62
2021/11/07 13:37:26;;;;;;;2.08;0.20;;;;;;;;;;5033896;28;19912;-62
2021/11/07 13:39:51;;;;;;;1.13;0.30;;;;;;;;;;5033808;28;20022;-62
2021/11/07 13:42:17;;;;;;;2.08;0.30;;;;;;;;;;5033854;28;20029;-62
2021/11/07 13:44:52;;;;;;;1.15;0.10;;;;;;;;;;5033988;28;20759;-62
2021/11/07 13:47:17;;;;;;;3.08;0.50;;;;;;;;;;5033932;28;20563;-62
2021/11/07 13:49:50;;;;;;;0.55;0.17;;;;;;;;;;5034003;28;20061;-62
2021/11/07 13:52:16;;;;;;;1.17;0.10;;;;;;;;;;5033873;28;20071;-62
2021/11/07 13:54:41;;;;;;;0.95;0.10;;;;;;;;;;5033589;28;20507;-62
2021/11/07 13:57:08;;;;;;;1.80;0.30;;;;;;;;;;5033454;28;20057;-62
2021/11/07 13:59:41;;;;;;;1.42;0.40;;;;;;;;;;5033732;28;20384;-62
2021/11/07 14:02:17;;;;;;;1.27;0.20;;;;;;;;;;5033384;28;20109;-62
2021/11/07 14:04:44;;;;;;;2.67;0.20;;;;;;;;;;5033566;28;20506;-61
2021/11/07 14:07:14;;;;;;;1.10;0.20;;;;;;;;;;5033540;28;20064;-62
2021/11/07 14:09:59;;;;;;;2.08;0.47;;;;;;;;;;5033261;28;20044;-62
2021/11/07 14:12:29;;;;;;;0.85;0.10;;;;;;;;;;4953048;29;20035;-62
2021/11/07 14:15:10;;;;;;;1.13;0.43;;;;;;;;;;4953010;29;20027;-62
2021/11/07 14:17:36;;;;;;;1.23;0.10;;;;;;;;;;4953341;29;20036;-62
2021/11/07 14:20:02;;;;;;;1.20;0.15;;;;;;;;;;4953053;29;20023;-62
2021/11/07 14:22:28;;;;;;;0.77;0.20;;;;;;;;;;4953184;29;20111;-62
2021/11/07 14:25:00;;;;;;;1.42;0.10;;;;;;;;;;4952818;29;20106;-62
2021/11/07 14:27:32;;;;;;;2.28;0.30;;;;;;;;;;4953062;29;20494;-62
2021/11/07 14:30:02;;;;;;;0.80;0.20;;;;;;;;;;4952431;29;20436;-62
2021/11/07 14:32:33;;;;;;;1.83;0.20;;;;;;;;;;4953086;29;20025;-62
2021/11/07 14:35:07;;;;;;;2.55;0.30;;;;;;;;;;4952932;29;20062;-62
2021/11/07 14:40:06;;;;;;;1.55;0.17;;;;;;;;;;4952844;29;20063;-62
2021/11/07 14:48:54;;;;;;;2.65;0.20;;;;;;;;;;4918567;29;20039;-62
2021/11/07 14:53:44;;;;;;;0.93;0.15;;;;;;;;;;4976167;28;20378;-62
2021/11/07 14:56:18;;;;;;;0.50;0.00;;;;;;;;;;4975409;28;20393;-62
2021/11/07 15:03:57;;;;;;;1.85;0.28;;;;;;;;;;4975414;28;20065;-62
2021/11/07 15:06:34;;;;;;;1.27;0.03;;;;;;;;;;4975896;28;20031;-62
2021/11/07 15:09:08;;;;;;;1.38;0.20;;;;;;;;;;4975725;28;20046;-62
2021/11/07 15:11:51;;;;;;;0.85;0.30;;;;;;;;;;4975608;28;20035;-62
2021/11/07 15:14:35;;;;;;;1.48;0.13;;;;;;;;;;4975779;28;20493;-62
2021/11/07 15:17:27;;;;;;;2.17;0.15;;;;;;;;;;4975538;28;20070;-63
2021/11/07 15:20:00;;;;;;;1.98;0.20;;;;;;;;;;4975526;28;20033;-62
2021/11/07 15:22:43;;;;;;;0.82;0.28;;;;;;;;;;4975418;28;20026;-62
2021/11/07 15:25:08;;;;;;;0.75;0.13;;;;;;;;;;5027935;28;20070;-62
2021/11/07 15:27:34;;;;;;;0.93;0.28;;;;;;;;;;5035642;28;20049;-62
2021/11/07 15:30:01;;;;;;;0.70;0.10;;;;;;;;;;5036010;28;20020;-63
2021/11/07 15:32:30;;;;;;;1.42;0.20;;;;;;;;;;5036210;28;20092;-62
2021/11/07 15:34:56;;;;;;;1.45;0.10;;;;;;;;;;5036229;28;20032;-62
2021/11/07 15:37:25;;;;;;;1.30;0.28;;;;;;;;;;5036470;28;20029;-62
2021/11/07 15:39:51;;;;;;;0.25;0.13;;;;;;;;;;5035813;28;20026;-62
2021/11/07 15:42:18;;;;;;;0.65;0.13;;;;;;;;;;5034849;28;20068;-62
2021/11/07 15:44:48;;;;;;;1.65;0.10;;;;;;;;;;5035738;28;20022;-62
2021/11/07 15:47:17;;;;;;;0.60;0.17;;;;;;;;;;5036256;28;20029;-62
2021/11/07 15:52:41;;;;;;;1.83;0.85;;;;;;;;;;4974993;28;20493;-62
2021/11/07 16:00:37;;;;;;;1.38;0.50;;;;;;;;;;4975097;28;20518;-63
2021/11/07 16:03:16;;;;;;;0.88;0.30;;;;;;;;;;4974454;28;20050;-62
2021/11/07 16:18:46;;;;;;;0.30;0.08;;;;;;;;;;4974436;28;20039;-62
2021/11/07 16:21:15;;;;;;;0.25;0.10;;;;;;;;;;4958326;28;20046;-62
2021/11/07 16:23:40;;;;;;;0.47;0.13;;;;;;;;;;4974502;28;20126;-62
2021/11/07 16:26:11;;;;;;;2.20;0.20;;;;;;;;;;4974237;28;20214;-63
2021/11/07 16:28:37;;;;;;;2.33;0.17;;;;;;;;;;4980252;28;20023;-62
2021/11/07 16:31:07;;;;;;;0.47;0.10;;;;;;;;;;5035025;28;20009;-62
2021/11/07 16:33:37;;;;;;;0.57;0.00;;;;;;;;;;5034273;28;20448;-63
2021/11/07 16:36:11;;;;;;;1.58;0.30;;;;;;;;;;5035322;28;20018;-62
2021/11/07 16:41:12;;;;;;;1.17;0.13;;;;;;;;;;5035473;28;20030;-62
2021/11/07 16:43:38;;;;;;;0.90;0.10;;;;;;;;;;5034960;28;20062;-62
2021/11/07 16:46:07;;;;;;;1.45;0.10;;;;;;;;;;5034542;28;20022;-62
2021/11/07 16:48:33;;;;;;;2.42;0.30;;;;;;;;;;5035035;28;20010;-62
2021/11/07 16:51:07;;;;;;;0.65;0.10;;;;;;;;;;5034824;28;20014;-63
2021/11/07 16:53:39;;;;;;;1.10;0.43;;;;;;;;;;5034949;28;20028;-62
2021/11/07 16:56:07;;;;;;;0.73;0.20;;;;;;;;;;5034771;28;20025;-62
2021/11/07 17:01:28;;;;;;;1.05;0.10;;;;;;;;;;4993133;28;20041;-62
2021/11/07 17:03:59;;;;;;;0.63;0.10;;;;;;;;;;4992682;28;20042;-62
2021/11/07 17:06:32;;;;;;;1.65;0.20;;;;;;;;;;4992634;28;20042;-62
2021/11/07 17:09:13;;;;;;;1.85;0.20;;;;;;;;;;4992971;28;20045;-62
2021/11/07 17:11:38;;;;;;;1.42;0.17;;;;;;;;;;4993074;28;20594;-62
2021/11/07 17:14:04;;;;;;;1.38;0.20;;;;;;;;;;4992958;28;20033;-62
2021/11/07 17:16:34;;;;;;;0.40;0.08;;;;;;;;;;4992972;28;20473;-62
2021/11/07 17:18:59;;;;;;;1.38;0.10;;;;;;;;;;4992816;28;20027;-62
2021/11/07 17:26:24;;;;;;;3.17;0.90;;;;;;;;;;4992725;28;20121;-63
2021/11/07 17:28:59;;;;;;;0.35;0.13;;;;;;;;;;4992461;28;20019;-62
2021/11/07 17:31:36;;;;;;;1.95;0.20;;;;;;;;;;4992522;28;20097;-63
2021/11/07 17:34:07;;;;;;;0.68;0.10;;;;;;;;;;4992732;28;20064;-62
2021/11/07 17:36:46;;;;;;;0.88;0.10;;;;;;;;;;4992799;28;20022;-62
2021/11/07 17:55:16;;;;;;;1.63;0.10;;;;;;;;;;5033960;28;20024;-62